Visby Flygplats, Sweden

7:40 AM CET on February 14, 2016 (GMT +0100)
Visby | | Change Station
CLOSE
Current Station
Airport
Location: Visby Flygplats,
Elevation: 154 ft
Nearby Weather Stations

Elev 154 ft 57.66 °N, 18.35 °E | Updated 20 minutes ago

Light Freezing Fog
Freezing Fog
27 °F
Feels Like 27 °F
N
0
Wind Variable Wind from North

Today
High -- | Low -- °F
--% Chance of Precip.
Yesterday
High -- | Low -- °F
Precip. -- in
Pressure 29.44 in
Visibility 0.0 miles
Clouds
Dew Point 27 °F
Humidity 100%
Rainfall 0.00 in
Snow Depth Not available.
7:20 AM 4:41 PM
Waxing Crescent, 38% visible
METAR ESSV 140620Z AUTO 00000KT 0050 R03/0175N R21/0225N FZFG NCD M03/M03 Q0997
Pressure 29.44 in
Visibility 0.0 miles
Clouds
Dew Point 27 °F
Humidity 100%
Rainfall 0.00 in
Snow Depth Not available.
7:20 AM 4:41 PM
Waxing Crescent, 38% visible
METAR ESSV 140620Z AUTO 00000KT 0050 R03/0175N R21/0225N FZFG NCD M03/M03 Q0997

10-Day Weather Forecast

Almanac

Astronomy

Feb. 14, 2016 Rise Set
Actual Time
Civil Twilight
Nautical Twilight
Astronomical Twilight
Moon
Length of Visible Light
Length of Day
Tomorrow will be .
, % of the Moon is Illuminated

Today's Extremes

Country Highs Country Lows

Community

WunderPhotos

Upload Photos

1,892,757 photos uploaded!

WunderBlog® & News

Nearby

Air Quality

  Air Quality AQ Index Pollutant
Not available.

Snow Depth

Station Depth Elevation

Earthquake Activity

City Distance Mag. Time & Date
Minimum magnitude displayed is 2.5.

Coastal Water Temperatures

Place Temperature

Stations

Nearby Weather Stations

Station Location Temp. Windchill Dew Point Humidity Wind Precip. Elev Updated Type